sensor_id;sensor_type;location;lat;lon;timestamp;temperature;humidity
52867;DHT22;38739;53.324;6.862;2023-07-13T00:01:43;16.40;99.90
52867;DHT22;38739;53.324;6.862;2023-07-13T00:04:08;16.30;99.90
52867;DHT22;38739;53.324;6.862;2023-07-13T00:06:34;16.30;99.90
52867;DHT22;38739;53.324;6.862;2023-07-13T00:09:01;16.30;99.90
52867;DHT22;38739;53.324;6.862;2023-07-13T00:11:27;16.30;99.90
52867;DHT22;38739;53.324;6.862;2023-07-13T00:13:53;16.20;99.90
52867;DHT22;38739;53.324;6.862;2023-07-13T00:16:19;16.20;99.90
52867;DHT22;38739;53.324;6.862;2023-07-13T00:18:46;16.20;99.90
52867;DHT22;38739;53.324;6.862;2023-07-13T00:21:12;16.20;99.90
52867;DHT22;38739;53.324;6.862;2023-07-13T00:23:40;16.20;99.90
52867;DHT22;38739;53.324;6.862;2023-07-13T00:26:08;16.10;99.90
52867;DHT22;38739;53.324;6.862;2023-07-13T00:28:34;16.10;99.90
52867;DHT22;38739;53.324;6.862;2023-07-13T00:31:00;16.10;99.90
52867;DHT22;38739;53.324;6.862;2023-07-13T00:33:28;16.10;99.90
52867;DHT22;38739;53.324;6.862;2023-07-13T00:35:55;16.10;99.90
52867;DHT22;38739;53.324;6.862;2023-07-13T00:38:21;16.10;99.90
52867;DHT22;38739;53.324;6.862;2023-07-13T00:40:47;16.10;99.90
52867;DHT22;38739;53.324;6.862;2023-07-13T00:43:19;16.10;99.90
52867;DHT22;38739;53.324;6.862;2023-07-13T00:48:20;16.10;99.90
52867;DHT22;38739;53.324;6.862;2023-07-13T00:50:49;16.10;99.90
52867;DHT22;38739;53.324;6.862;2023-07-13T00:53:17;16.10;99.90
52867;DHT22;38739;53.324;6.862;2023-07-13T00:55:44;16.10;99.90
52867;DHT22;38739;53.324;6.862;2023-07-13T00:58:10;16.10;99.90
52867;DHT22;38739;53.324;6.862;2023-07-13T01:00:37;16.10;99.90
52867;DHT22;38739;53.324;6.862;2023-07-13T01:03:04;16.10;99.90
52867;DHT22;38739;53.324;6.862;2023-07-13T01:05:32;16.10;99.90
52867;DHT22;38739;53.324;6.862;2023-07-13T01:07:59;16.20;99.90
52867;DHT22;38739;53.324;6.862;2023-07-13T01:10:26;16.20;99.90
52867;DHT22;38739;53.324;6.862;2023-07-13T01:12:53;16.10;99.90
52867;DHT22;38739;53.324;6.862;2023-07-13T01:15:44;16.10;99.90
52867;DHT22;38739;53.324;6.862;2023-07-13T01:18:21;16.20;99.90
52867;DHT22;38739;53.324;6.862;2023-07-13T01:21:01;16.20;99.90
52867;DHT22;38739;53.324;6.862;2023-07-13T01:23:28;16.20;99.90
52867;DHT22;38739;53.324;6.862;2023-07-13T01:25:54;16.20;99.90
52867;DHT22;38739;53.324;6.862;2023-07-13T01:28:21;16.20;99.90
52867;DHT22;38739;53.324;6.862;2023-07-13T01:30:48;16.10;99.90
52867;DHT22;38739;53.324;6.862;2023-07-13T01:33:17;16.20;99.90
52867;DHT22;38739;53.324;6.862;2023-07-13T01:35:44;16.10;99.90
52867;DHT22;38739;53.324;6.862;2023-07-13T01:38:12;16.10;99.90
52867;DHT22;38739;53.324;6.862;2023-07-13T01:40:38;16.10;99.90
52867;DHT22;38739;53.324;6.862;2023-07-13T01:43:04;16.20;99.90
52867;DHT22;38739;53.324;6.862;2023-07-13T01:45:30;16.10;99.90
52867;DHT22;38739;53.324;6.862;2023-07-13T01:47:56;16.10;99.90
52867;DHT22;38739;53.324;6.862;2023-07-13T01:50:23;16.10;99.90
52867;DHT22;38739;53.324;6.862;2023-07-13T01:52:49;16.10;99.90
52867;DHT22;38739;53.324;6.862;2023-07-13T01:55:15;16.10;99.90
52867;DHT22;38739;53.324;6.862;2023-07-13T01:57:40;16.10;99.90
52867;DHT22;38739;53.324;6.862;2023-07-13T02:00:09;16.10;99.90
52867;DHT22;38739;53.324;6.862;2023-07-13T02:02:35;16.10;99.90
52867;DHT22;38739;53.324;6.862;2023-07-13T02:05:01;16.10;99.90
52867;DHT22;38739;53.324;6.862;2023-07-13T02:07:26;16.10;99.90
52867;DHT22;38739;53.324;6.862;2023-07-13T02:09:52;16.10;99.90
52867;DHT22;38739;53.324;6.862;2023-07-13T02:12:18;16.10;99.90
52867;DHT22;38739;53.324;6.862;2023-07-13T02:14:43;16.10;99.90
52867;DHT22;38739;53.324;6.862;2023-07-13T02:17:10;16.10;99.90
52867;DHT22;38739;53.324;6.862;2023-07-13T02:19:36;16.10;99.90
52867;DHT22;38739;53.324;6.862;2023-07-13T02:22:02;16.10;99.90
52867;DHT22;38739;53.324;6.862;2023-07-13T02:24:28;16.10;99.90
52867;DHT22;38739;53.324;6.862;2023-07-13T02:26:54;16.10;99.90
52867;DHT22;38739;53.324;6.862;2023-07-13T02:29:20;16.10;99.90
52867;DHT22;38739;53.324;6.862;2023-07-13T02:31:45;16.10;99.90
52867;DHT22;38739;53.324;6.862;2023-07-13T02:34:11;16.10;99.90
52867;DHT22;38739;53.324;6.862;2023-07-13T02:36:37;16.10;99.90
52867;DHT22;38739;53.324;6.862;2023-07-13T02:39:05;16.10;99.90
52867;DHT22;38739;53.324;6.862;2023-07-13T02:41:31;16.10;99.90
52867;DHT22;38739;53.324;6.862;2023-07-13T02:44:01;16.10;99.90
52867;DHT22;38739;53.324;6.862;2023-07-13T02:46:32;16.10;99.90
52867;DHT22;38739;53.324;6.862;2023-07-13T02:48:58;16.10;99.90
52867;DHT22;38739;53.324;6.862;2023-07-13T02:51:24;16.10;99.90
52867;DHT22;38739;53.324;6.862;2023-07-13T02:53:50;16.10;99.90
52867;DHT22;38739;53.324;6.862;2023-07-13T02:56:15;16.00;99.90
52867;DHT22;38739;53.324;6.862;2023-07-13T02:58:41;16.10;99.90
52867;DHT22;38739;53.324;6.862;2023-07-13T03:01:12;16.00;99.90
52867;DHT22;38739;53.324;6.862;2023-07-13T03:03:38;16.00;99.90
52867;DHT22;38739;53.324;6.862;2023-07-13T03:06:05;16.00;99.90
52867;DHT22;38739;53.324;6.862;2023-07-13T03:08:32;15.90;99.90
52867;DHT22;38739;53.324;6.862;2023-07-13T03:11:02;15.90;99.90
52867;DHT22;38739;53.324;6.862;2023-07-13T03:13:28;15.90;99.90
52867;DHT22;38739;53.324;6.862;2023-07-13T03:15:54;15.90;99.90
52867;DHT22;38739;53.324;6.862;2023-07-13T03:18:20;15.90;99.90
52867;DHT22;38739;53.324;6.862;2023-07-13T03:20:46;15.80;99.90
52867;DHT22;38739;53.324;6.862;2023-07-13T03:23:11;15.80;99.90
52867;DHT22;38739;53.324;6.862;2023-07-13T03:25:37;15.80;99.90
52867;DHT22;38739;53.324;6.862;2023-07-13T03:28:03;15.80;99.90
52867;DHT22;38739;53.324;6.862;2023-07-13T03:30:30;15.70;99.90
52867;DHT22;38739;53.324;6.862;2023-07-13T03:32:55;15.70;99.90
52867;DHT22;38739;53.324;6.862;2023-07-13T03:35:21;15.70;99.90
52867;DHT22;38739;53.324;6.862;2023-07-13T03:37:46;15.70;99.90
52867;DHT22;38739;53.324;6.862;2023-07-13T03:40:12;15.70;99.90
52867;DHT22;38739;53.324;6.862;2023-07-13T03:42:38;15.70;99.90
52867;DHT22;38739;53.324;6.862;2023-07-13T03:45:04;15.70;99.90
52867;DHT22;38739;53.324;6.862;2023-07-13T03:47:30;15.70;99.90
52867;DHT22;38739;53.324;6.862;2023-07-13T03:49:56;15.70;99.90
52867;DHT22;38739;53.324;6.862;2023-07-13T03:52:22;15.70;99.90
52867;DHT22;38739;53.324;6.862;2023-07-13T03:54:47;15.70;99.90
52867;DHT22;38739;53.324;6.862;2023-07-13T03:57:13;15.70;99.90
52867;DHT22;38739;53.324;6.862;2023-07-13T03:59:39;15.80;99.90
52867;DHT22;38739;53.324;6.862;2023-07-13T04:02:04;15.80;99.90
52867;DHT22;38739;53.324;6.862;2023-07-13T04:04:30;15.80;99.90
52867;DHT22;38739;53.324;6.862;2023-07-13T04:06:57;15.90;99.90
52867;DHT22;38739;53.324;6.862;2023-07-13T04:09:24;15.90;99.90
52867;DHT22;38739;53.324;6.862;2023-07-13T04:11:50;15.90;99.90
52867;DHT22;38739;53.324;6.862;2023-07-13T04:14:16;16.00;99.90
52867;DHT22;38739;53.324;6.862;2023-07-13T04:16:42;16.00;99.90
52867;DHT22;38739;53.324;6.862;2023-07-13T04:19:09;16.00;99.90
52867;DHT22;38739;53.324;6.862;2023-07-13T04:21:36;16.00;99.90
52867;DHT22;38739;53.324;6.862;2023-07-13T04:24:03;16.10;99.90
52867;DHT22;38739;53.324;6.862;2023-07-13T04:26:29;16.10;99.90
52867;DHT22;38739;53.324;6.862;2023-07-13T04:28:56;16.10;99.90
52867;DHT22;38739;53.324;6.862;2023-07-13T04:31:22;16.10;99.90
52867;DHT22;38739;53.324;6.862;2023-07-13T04:33:48;16.10;99.90
52867;DHT22;38739;53.324;6.862;2023-07-13T04:36:15;16.10;99.90
52867;DHT22;38739;53.324;6.862;2023-07-13T04:38:41;16.10;99.90
52867;DHT22;38739;53.324;6.862;2023-07-13T04:41:07;16.10;99.90
52867;DHT22;38739;53.324;6.862;2023-07-13T04:43:34;16.10;99.90
52867;DHT22;38739;53.324;6.862;2023-07-13T04:46:08;16.00;99.90
52867;DHT22;38739;53.324;6.862;2023-07-13T04:48:35;16.00;99.90
52867;DHT22;38739;53.324;6.862;2023-07-13T04:51:01;16.00;99.90
52867;DHT22;38739;53.324;6.862;2023-07-13T04:53:28;16.00;99.90
52867;DHT22;38739;53.324;6.862;2023-07-13T04:55:54;16.00;99.90
52867;DHT22;38739;53.324;6.862;2023-07-13T04:58:20;16.00;99.90
52867;DHT22;38739;53.324;6.862;2023-07-13T05:00:47;16.00;99.90
52867;DHT22;38739;53.324;6.862;2023-07-13T05:03:13;16.00;99.90
52867;DHT22;38739;53.324;6.862;2023-07-13T05:05:38;16.00;99.90
52867;DHT22;38739;53.324;6.862;2023-07-13T05:08:04;16.00;99.90
52867;DHT22;38739;53.324;6.862;2023-07-13T05:10:30;16.00;99.90
52867;DHT22;38739;53.324;6.862;2023-07-13T05:12:55;16.00;99.90
52867;DHT22;38739;53.324;6.862;2023-07-13T05:15:22;16.10;99.90
52867;DHT22;38739;53.324;6.862;2023-07-13T05:17:49;16.10;99.90
52867;DHT22;38739;53.324;6.862;2023-07-13T05:20:16;16.10;99.90
52867;DHT22;38739;53.324;6.862;2023-07-13T05:22:43;16.10;99.90
52867;DHT22;38739;53.324;6.862;2023-07-13T05:25:10;16.20;99.90
52867;DHT22;38739;53.324;6.862;2023-07-13T05:27:36;16.20;99.90
52867;DHT22;38739;53.324;6.862;2023-07-13T05:30:03;16.20;99.90
52867;DHT22;38739;53.324;6.862;2023-07-13T05:32:29;16.30;99.90
52867;DHT22;38739;53.324;6.862;2023-07-13T05:34:54;16.30;99.90
52867;DHT22;38739;53.324;6.862;2023-07-13T05:37:20;16.30;99.90
52867;DHT22;38739;53.324;6.862;2023-07-13T05:39:46;16.40;99.90
52867;DHT22;38739;53.324;6.862;2023-07-13T05:42:12;16.40;99.90
52867;DHT22;38739;53.324;6.862;2023-07-13T05:44:37;16.40;99.90
52867;DHT22;38739;53.324;6.862;2023-07-13T05:47:03;16.50;99.90
52867;DHT22;38739;53.324;6.862;2023-07-13T05:49:29;16.50;99.90
52867;DHT22;38739;53.324;6.862;2023-07-13T05:51:56;16.60;99.90
52867;DHT22;38739;53.324;6.862;2023-07-13T05:54:22;16.60;99.90
52867;DHT22;38739;53.324;6.862;2023-07-13T05:56:48;16.70;99.90
52867;DHT22;38739;53.324;6.862;2023-07-13T05:59:13;16.70;99.90
52867;DHT22;38739;53.324;6.862;2023-07-13T06:01:39;16.70;99.90
52867;DHT22;38739;53.324;6.862;2023-07-13T06:04:05;16.80;99.90
52867;DHT22;38739;53.324;6.862;2023-07-13T06:06:30;16.80;99.90
52867;DHT22;38739;53.324;6.862;2023-07-13T06:08:56;16.90;99.90
52867;DHT22;38739;53.324;6.862;2023-07-13T06:11:25;16.90;99.90
52867;DHT22;38739;53.324;6.862;2023-07-13T06:13:51;16.90;99.90
52867;DHT22;38739;53.324;6.862;2023-07-13T06:16:17;17.00;99.90
52867;DHT22;38739;53.324;6.862;2023-07-13T06:18:43;17.00;99.90
52867;DHT22;38739;53.324;6.862;2023-07-13T06:21:12;17.10;99.90
52867;DHT22;38739;53.324;6.862;2023-07-13T06:23:38;17.20;99.90
52867;DHT22;38739;53.324;6.862;2023-07-13T06:26:04;17.30;99.90
52867;DHT22;38739;53.324;6.862;2023-07-13T06:28:31;17.30;99.90
52867;DHT22;38739;53.324;6.862;2023-07-13T06:30:58;17.40;99.90
52867;DHT22;38739;53.324;6.862;2023-07-13T06:33:25;17.40;99.90
52867;DHT22;38739;53.324;6.862;2023-07-13T06:35:51;17.50;99.90
52867;DHT22;38739;53.324;6.862;2023-07-13T06:38:16;17.60;99.90
52867;DHT22;38739;53.324;6.862;2023-07-13T06:40:42;17.60;99.90
52867;DHT22;38739;53.324;6.862;2023-07-13T06:43:08;17.70;99.90
52867;DHT22;38739;53.324;6.862;2023-07-13T06:45:43;17.70;99.90
52867;DHT22;38739;53.324;6.862;2023-07-13T06:48:11;17.80;99.90
52867;DHT22;38739;53.324;6.862;2023-07-13T06:50:37;17.90;99.90
52867;DHT22;38739;53.324;6.862;2023-07-13T06:53:02;18.10;99.90
52867;DHT22;38739;53.324;6.862;2023-07-13T06:55:28;18.10;99.90
52867;DHT22;38739;53.324;6.862;2023-07-13T06:57:54;18.10;99.90
52867;DHT22;38739;53.324;6.862;2023-07-13T07:00:20;18.20;99.90
52867;DHT22;38739;53.324;6.862;2023-07-13T07:02:45;18.30;99.90
52867;DHT22;38739;53.324;6.862;2023-07-13T07:05:11;18.50;99.90
52867;DHT22;38739;53.324;6.862;2023-07-13T07:07:37;18.50;99.90
52867;DHT22;38739;53.324;6.862;2023-07-13T07:10:03;18.70;99.90
52867;DHT22;38739;53.324;6.862;2023-07-13T07:12:29;18.70;99.90
52867;DHT22;38739;53.324;6.862;2023-07-13T07:14:54;18.90;99.90
52867;DHT22;38739;53.324;6.862;2023-07-13T07:17:20;19.00;99.90
52867;DHT22;38739;53.324;6.862;2023-07-13T07:19:46;19.10;99.90
52867;DHT22;38739;53.324;6.862;2023-07-13T07:22:12;19.20;99.90
52867;DHT22;38739;53.324;6.862;2023-07-13T07:24:37;19.30;99.90
52867;DHT22;38739;53.324;6.862;2023-07-13T07:27:03;19.40;99.90
52867;DHT22;38739;53.324;6.862;2023-07-13T07:29:29;19.50;99.90
52867;DHT22;38739;53.324;6.862;2023-07-13T07:31:55;19.60;99.90
52867;DHT22;38739;53.324;6.862;2023-07-13T07:34:20;19.90;99.90
52867;DHT22;38739;53.324;6.862;2023-07-13T07:36:46;20.20;99.90
52867;DHT22;38739;53.324;6.862;2023-07-13T07:39:12;20.50;99.90
52867;DHT22;38739;53.324;6.862;2023-07-13T07:41:38;20.60;99.90
52867;DHT22;38739;53.324;6.862;2023-07-13T07:44:04;20.70;99.90
52867;DHT22;38739;53.324;6.862;2023-07-13T07:46:30;20.70;99.90
52867;DHT22;38739;53.324;6.862;2023-07-13T07:48:56;20.80;99.90
52867;DHT22;38739;53.324;6.862;2023-07-13T07:51:22;21.00;99.90
52867;DHT22;38739;53.324;6.862;2023-07-13T07:53:48;21.20;99.90
52867;DHT22;38739;53.324;6.862;2023-07-13T07:56:14;21.30;99.90
52867;DHT22;38739;53.324;6.862;2023-07-13T07:58:42;21.50;99.90
52867;DHT22;38739;53.324;6.862;2023-07-13T08:01:08;21.40;99.90
52867;DHT22;38739;53.324;6.862;2023-07-13T08:03:34;21.20;99.90
52867;DHT22;38739;53.324;6.862;2023-07-13T08:06:00;21.30;99.90
52867;DHT22;38739;53.324;6.862;2023-07-13T08:08:26;21.50;99.90
52867;DHT22;38739;53.324;6.862;2023-07-13T08:10:52;21.80;99.90
52867;DHT22;38739;53.324;6.862;2023-07-13T08:13:18;21.90;99.90
52867;DHT22;38739;53.324;6.862;2023-07-13T08:15:43;22.20;99.90
52867;DHT22;38739;53.324;6.862;2023-07-13T08:18:09;22.50;99.90
52867;DHT22;38739;53.324;6.862;2023-07-13T08:20:39;22.70;99.90
52867;DHT22;38739;53.324;6.862;2023-07-13T08:23:05;22.60;99.90
52867;DHT22;38739;53.324;6.862;2023-07-13T08:25:31;22.70;99.90
52867;DHT22;38739;53.324;6.862;2023-07-13T08:27:57;22.70;99.90
52867;DHT22;38739;53.324;6.862;2023-07-13T08:30:22;22.70;99.90
52867;DHT22;38739;53.324;6.862;2023-07-13T08:32:48;22.40;99.90
52867;DHT22;38739;53.324;6.862;2023-07-13T08:35:15;22.20;99.90
52867;DHT22;38739;53.324;6.862;2023-07-13T08:37:41;21.90;99.90
52867;DHT22;38739;53.324;6.862;2023-07-13T08:40:10;21.80;99.90
52867;DHT22;38739;53.324;6.862;2023-07-13T08:42:48;21.50;99.90
52867;DHT22;38739;53.324;6.862;2023-07-13T08:45:44;21.30;99.90
52867;DHT22;38739;53.324;6.862;2023-07-13T08:48:18;21.30;99.90
52867;DHT22;38739;53.324;6.862;2023-07-13T08:51:11;21.40;99.90
52867;DHT22;38739;53.324;6.862;2023-07-13T08:53:46;21.50;99.90
52867;DHT22;38739;53.324;6.862;2023-07-13T08:56:18;21.70;99.90
52867;DHT22;38739;53.324;6.862;2023-07-13T08:58:47;21.80;99.90
52867;DHT22;38739;53.324;6.862;2023-07-13T09:01:41;21.80;99.90
52867;DHT22;38739;53.324;6.862;2023-07-13T09:04:21;21.70;99.90
52867;DHT22;38739;53.324;6.862;2023-07-13T09:12:23;21.20;99.90
52867;DHT22;38739;53.324;6.862;2023-07-13T09:14:54;21.20;99.90
52867;DHT22;38739;53.324;6.862;2023-07-13T09:17:25;21.30;99.90
52867;DHT22;38739;53.324;6.862;2023-07-13T09:20:04;21.30;99.90
52867;DHT22;38739;53.324;6.862;2023-07-13T09:22:36;21.30;99.90
52867;DHT22;38739;53.324;6.862;2023-07-13T09:27:49;21.40;99.90
52867;DHT22;38739;53.324;6.862;2023-07-13T09:32:50;21.40;99.90
52867;DHT22;38739;53.324;6.862;2023-07-13T09:35:21;21.40;99.90
52867;DHT22;38739;53.324;6.862;2023-07-13T09:37:47;21.40;99.90
52867;DHT22;38739;53.324;6.862;2023-07-13T09:40:40;21.30;99.90
52867;DHT22;38739;53.324;6.862;2023-07-13T09:43:10;21.50;99.90
52867;DHT22;38739;53.324;6.862;2023-07-13T09:45:38;22.00;99.90
52867;DHT22;38739;53.324;6.862;2023-07-13T09:48:12;22.60;99.90
52867;DHT22;38739;53.324;6.862;2023-07-13T09:50:39;22.90;99.90
52867;DHT22;38739;53.324;6.862;2023-07-13T09:53:12;22.90;99.90
52867;DHT22;38739;53.324;6.862;2023-07-13T09:55:39;22.60;99.90
52867;DHT22;38739;53.324;6.862;2023-07-13T09:58:14;22.30;99.90
52867;DHT22;38739;53.324;6.862;2023-07-13T10:00:43;22.10;99.90
52867;DHT22;38739;53.324;6.862;2023-07-13T10:03:19;21.80;99.90
52867;DHT22;38739;53.324;6.862;2023-07-13T10:05:49;21.40;99.90
52867;DHT22;38739;53.324;6.862;2023-07-13T10:08:28;21.10;99.90
52867;DHT22;38739;53.324;6.862;2023-07-13T10:10:59;20.70;99.90
52867;DHT22;38739;53.324;6.862;2023-07-13T10:13:35;20.40;99.90
52867;DHT22;38739;53.324;6.862;2023-07-13T10:16:03;20.20;99.90
52867;DHT22;38739;53.324;6.862;2023-07-13T10:18:57;20.00;99.90
52867;DHT22;38739;53.324;6.862;2023-07-13T10:21:27;19.80;99.90
52867;DHT22;38739;53.324;6.862;2023-07-13T10:24:05;19.60;99.90
52867;DHT22;38739;53.324;6.862;2023-07-13T10:26:34;19.40;99.90
52867;DHT22;38739;53.324;6.862;2023-07-13T10:29:07;19.30;99.90
52867;DHT22;38739;53.324;6.862;2023-07-13T10:31:36;19.40;99.90
52867;DHT22;38739;53.324;6.862;2023-07-13T10:34:03;19.60;99.90
52867;DHT22;38739;53.324;6.862;2023-07-13T10:36:44;20.00;99.90
52867;DHT22;38739;53.324;6.862;2023-07-13T10:39:17;20.20;99.90
52867;DHT22;38739;53.324;6.862;2023-07-13T10:41:44;20.30;99.90
52867;DHT22;38739;53.324;6.862;2023-07-13T10:44:38;20.20;99.90
52867;DHT22;38739;53.324;6.862;2023-07-13T10:47:14;20.10;99.90
52867;DHT22;38739;53.324;6.862;2023-07-13T10:49:41;20.00;99.90
52867;DHT22;38739;53.324;6.862;2023-07-13T10:52:46;20.00;99.90
52867;DHT22;38739;53.324;6.862;2023-07-13T10:58:24;20.80;99.90
52867;DHT22;38739;53.324;6.862;2023-07-13T11:01:12;21.20;99.90
52867;DHT22;38739;53.324;6.862;2023-07-13T11:08:53;21.50;99.90
52867;DHT22;38739;53.324;6.862;2023-07-13T11:11:32;21.50;99.90
52867;DHT22;38739;53.324;6.862;2023-07-13T11:14:00;21.70;99.90
52867;DHT22;38739;53.324;6.862;2023-07-13T11:16:35;22.20;99.90
52867;DHT22;38739;53.324;6.862;2023-07-13T11:21:28;22.50;99.90
52867;DHT22;38739;53.324;6.862;2023-07-13T11:24:16;22.30;99.90
52867;DHT22;38739;53.324;6.862;2023-07-13T11:29:25;22.60;99.90
52867;DHT22;38739;53.324;6.862;2023-07-13T11:31:53;22.90;99.90
52867;DHT22;38739;53.324;6.862;2023-07-13T11:36:53;23.40;99.90
52867;DHT22;38739;53.324;6.862;2023-07-13T11:41:58;23.90;99.90
52867;DHT22;38739;53.324;6.862;2023-07-13T11:44:26;23.90;99.90
52867;DHT22;38739;53.324;6.862;2023-07-13T11:46:58;24.30;99.90
52867;DHT22;38739;53.324;6.862;2023-07-13T11:49:29;24.40;99.90
52867;DHT22;38739;53.324;6.862;2023-07-13T11:51:56;24.60;99.90
52867;DHT22;38739;53.324;6.862;2023-07-13T11:54:26;24.50;99.90
52867;DHT22;38739;53.324;6.862;2023-07-13T11:56:57;24.20;99.90
52867;DHT22;38739;53.324;6.862;2023-07-13T11:59:26;23.90;99.90
52867;DHT22;38739;53.324;6.862;2023-07-13T12:01:53;23.80;99.90
52867;DHT22;38739;53.324;6.862;2023-07-13T12:04:29;23.90;99.90
52867;DHT22;38739;53.324;6.862;2023-07-13T12:07:28;23.90;99.90
52867;DHT22;38739;53.324;6.862;2023-07-13T12:09:53;23.60;99.90
52867;DHT22;38739;53.324;6.862;2023-07-13T12:12:21;23.90;99.90
52867;DHT22;38739;53.324;6.862;2023-07-13T12:14:51;24.30;99.90
52867;DHT22;38739;53.324;6.862;2023-07-13T12:17:24;24.60;99.90
52867;DHT22;38739;53.324;6.862;2023-07-13T12:19:51;24.90;99.90
52867;DHT22;38739;53.324;6.862;2023-07-13T12:22:19;25.10;99.90
52867;DHT22;38739;53.324;6.862;2023-07-13T12:24:46;24.80;99.90
52867;DHT22;38739;53.324;6.862;2023-07-13T12:27:26;24.60;99.90
52867;DHT22;38739;53.324;6.862;2023-07-13T12:30:04;24.70;99.90
52867;DHT22;38739;53.324;6.862;2023-07-13T12:32:31;25.20;99.90
52867;DHT22;38739;53.324;6.862;2023-07-13T12:35:14;25.60;99.50
52867;DHT22;38739;53.324;6.862;2023-07-13T12:37:45;26.30;99.90
52867;DHT22;38739;53.324;6.862;2023-07-13T12:40:17;26.50;94.80
52867;DHT22;38739;53.324;6.862;2023-07-13T12:42:49;26.80;96.50
52867;DHT22;38739;53.324;6.862;2023-07-13T12:45:22;27.00;95.30
52867;DHT22;38739;53.324;6.862;2023-07-13T12:47:50;27.20;95.40
52867;DHT22;38739;53.324;6.862;2023-07-13T12:50:22;27.10;93.30
52867;DHT22;38739;53.324;6.862;2023-07-13T12:52:53;26.90;92.20
52867;DHT22;38739;53.324;6.862;2023-07-13T12:55:20;26.90;94.20
52867;DHT22;38739;53.324;6.862;2023-07-13T12:57:52;26.80;92.70
52867;DHT22;38739;53.324;6.862;2023-07-13T13:00:36;27.10;92.20
52867;DHT22;38739;53.324;6.862;2023-07-13T13:05:38;26.30;90.00
52867;DHT22;38739;53.324;6.862;2023-07-13T13:08:04;25.90;92.20
52867;DHT22;38739;53.324;6.862;2023-07-13T13:10:30;25.40;93.30
52867;DHT22;38739;53.324;6.862;2023-07-13T13:12:55;25.00;96.30
52867;DHT22;38739;53.324;6.862;2023-07-13T13:15:21;24.70;98.30
52867;DHT22;38739;53.324;6.862;2023-07-13T13:17:48;24.40;97.60
52867;DHT22;38739;53.324;6.862;2023-07-13T13:20:18;24.50;98.00
52867;DHT22;38739;53.324;6.862;2023-07-13T13:22:45;24.70;95.80
52867;DHT22;38739;53.324;6.862;2023-07-13T13:25:12;24.50;95.20
52867;DHT22;38739;53.324;6.862;2023-07-13T13:27:39;24.30;94.30
52867;DHT22;38739;53.324;6.862;2023-07-13T13:30:17;24.10;94.30
52867;DHT22;38739;53.324;6.862;2023-07-13T13:32:45;24.00;95.70
52867;DHT22;38739;53.324;6.862;2023-07-13T13:35:15;24.20;98.10
52867;DHT22;38739;53.324;6.862;2023-07-13T13:37:42;24.50;98.50
52867;DHT22;38739;53.324;6.862;2023-07-13T13:40:19;24.70;98.10
52867;DHT22;38739;53.324;6.862;2023-07-13T13:42:46;25.10;97.70
52867;DHT22;38739;53.324;6.862;2023-07-13T13:45:13;24.90;96.10
52867;DHT22;38739;53.324;6.862;2023-07-13T13:47:39;24.70;96.40
52867;DHT22;38739;53.324;6.862;2023-07-13T13:50:20;24.60;97.80
52867;DHT22;38739;53.324;6.862;2023-07-13T13:52:47;24.40;99.90
52867;DHT22;38739;53.324;6.862;2023-07-13T13:55:18;24.50;99.90
52867;DHT22;38739;53.324;6.862;2023-07-13T13:57:45;25.00;99.90
52867;DHT22;38739;53.324;6.862;2023-07-13T14:00:12;25.30;99.90
52867;DHT22;38739;53.324;6.862;2023-07-13T14:02:41;25.30;99.90
52867;DHT22;38739;53.324;6.862;2023-07-13T14:05:13;25.30;99.90
52867;DHT22;38739;53.324;6.862;2023-07-13T14:07:39;24.90;99.90
52867;DHT22;38739;53.324;6.862;2023-07-13T14:10:16;24.60;99.90
52867;DHT22;38739;53.324;6.862;2023-07-13T14:12:44;24.30;99.90
52867;DHT22;38739;53.324;6.862;2023-07-13T14:15:28;23.80;99.90
52867;DHT22;38739;53.324;6.862;2023-07-13T14:17:56;23.40;99.90
52867;DHT22;38739;53.324;6.862;2023-07-13T14:20:25;23.00;99.90
52867;DHT22;38739;53.324;6.862;2023-07-13T14:22:52;23.00;99.90
52867;DHT22;38739;53.324;6.862;2023-07-13T14:25:19;23.30;99.90
52867;DHT22;38739;53.324;6.862;2023-07-13T14:27:48;23.80;99.90
52867;DHT22;38739;53.324;6.862;2023-07-13T14:30:17;23.70;99.90
52867;DHT22;38739;53.324;6.862;2023-07-13T14:32:43;24.00;99.90
52867;DHT22;38739;53.324;6.862;2023-07-13T14:35:14;24.40;99.90
52867;DHT22;38739;53.324;6.862;2023-07-13T14:37:40;24.60;99.90
52867;DHT22;38739;53.324;6.862;2023-07-13T14:40:14;24.60;99.90
52867;DHT22;38739;53.324;6.862;2023-07-13T14:42:40;24.90;99.90
52867;DHT22;38739;53.324;6.862;2023-07-13T14:45:16;24.90;99.90
52867;DHT22;38739;53.324;6.862;2023-07-13T14:47:43;24.70;99.90
52867;DHT22;38739;53.324;6.862;2023-07-13T14:50:21;24.60;99.90
52867;DHT22;38739;53.324;6.862;2023-07-13T14:52:47;24.40;99.90
52867;DHT22;38739;53.324;6.862;2023-07-13T14:55:15;24.40;99.90
52867;DHT22;38739;53.324;6.862;2023-07-13T14:57:41;24.40;99.90
52867;DHT22;38739;53.324;6.862;2023-07-13T15:00:25;24.40;99.90
52867;DHT22;38739;53.324;6.862;2023-07-13T15:02:53;24.60;99.90
52867;DHT22;38739;53.324;6.862;2023-07-13T15:05:23;24.60;99.90
52867;DHT22;38739;53.324;6.862;2023-07-13T15:07:50;24.70;99.90
52867;DHT22;38739;53.324;6.862;2023-07-13T15:10:25;24.70;99.90
52867;DHT22;38739;53.324;6.862;2023-07-13T15:12:52;24.80;99.90
52867;DHT22;38739;53.324;6.862;2023-07-13T15:15:18;24.70;99.90
52867;DHT22;38739;53.324;6.862;2023-07-13T15:17:46;24.90;99.90
52867;DHT22;38739;53.324;6.862;2023-07-13T15:22:45;25.20;99.90
52867;DHT22;38739;53.324;6.862;2023-07-13T15:25:18;25.30;99.90
52867;DHT22;38739;53.324;6.862;2023-07-13T15:27:44;25.20;99.90
52867;DHT22;38739;53.324;6.862;2023-07-13T15:30:11;25.20;99.90
52867;DHT22;38739;53.324;6.862;2023-07-13T15:32:37;25.00;98.80
52867;DHT22;38739;53.324;6.862;2023-07-13T15:35:02;24.90;98.40
52867;DHT22;38739;53.324;6.862;2023-07-13T15:37:29;25.00;99.90
52867;DHT22;38739;53.324;6.862;2023-07-13T15:39:54;24.90;99.50
52867;DHT22;38739;53.324;6.862;2023-07-13T15:42:23;24.90;99.40
52867;DHT22;38739;53.324;6.862;2023-07-13T15:44:49;24.90;98.80
52867;DHT22;38739;53.324;6.862;2023-07-13T15:47:15;25.00;99.90
52867;DHT22;38739;53.324;6.862;2023-07-13T15:49:42;24.80;99.30
52867;DHT22;38739;53.324;6.862;2023-07-13T15:52:17;24.60;97.90
52867;DHT22;38739;53.324;6.862;2023-07-13T15:54:44;24.40;97.10
52867;DHT22;38739;53.324;6.862;2023-07-13T15:57:11;24.40;99.90
52867;DHT22;38739;53.324;6.862;2023-07-13T15:59:37;24.60;99.90
52867;DHT22;38739;53.324;6.862;2023-07-13T16:02:29;24.50;99.30
52867;DHT22;38739;53.324;6.862;2023-07-13T16:04:55;24.10;98.60
52867;DHT22;38739;53.324;6.862;2023-07-13T16:07:21;23.90;99.50
52867;DHT22;38739;53.324;6.862;2023-07-13T16:09:48;23.90;99.90
52867;DHT22;38739;53.324;6.862;2023-07-13T16:12:16;24.00;99.90
52867;DHT22;38739;53.324;6.862;2023-07-13T16:14:43;24.00;99.90
52867;DHT22;38739;53.324;6.862;2023-07-13T16:17:11;23.80;99.90